Time;durP1;ratioP1;P1;durP2;ratioP2;P2;SDS_P1;SDS_P2;PMS_P1;PMS_P2;Temp;Humidity;BMP_temperature;BMP_pressure;BME280_temperature;BME280_humidity;BME280_pressure;Samples;Min_cycle;Max_cycle;Signal;HPM_P1;HPM_P2
2022/08/23 00:01:11;;;;;;;;;1.00;1.00;;;;;21.39;72.16;100880.03;5073923;28;47748;-82
2022/08/23 00:03:37;;;;;;;;;1.00;1.00;;;;;21.36;72.71;100878.25;5092710;28;45116;-82
2022/08/23 00:06:02;;;;;;;;;1.00;1.00;;;;;21.33;72.79;100875.63;5092401;28;45161;-81
2022/08/23 00:08:28;;;;;;;;;2.00;2.00;;;;;21.21;72.81;100853.38;5092031;28;45361;-82
2022/08/23 00:10:54;;;;;;;;;1.00;1.00;;;;;21.27;73.15;100866.69;5090963;28;46231;-82
2022/08/23 00:13:19;;;;;;;;;1.00;1.00;;;;;21.32;73.11;100871.13;5091983;28;45196;-80
2022/08/23 00:15:45;;;;;;;;;1.00;1.00;;;;;21.30;72.92;100870.28;5092423;28;45070;-81
2022/08/23 00:18:10;;;;;;;;;1.00;1.00;;;;;21.31;73.25;100871.16;5092278;28;45081;-81
2022/08/23 00:20:36;;;;;;;;;1.00;1.00;;;;;21.17;73.05;100848.94;5091794;28;50016;-82
2022/08/23 00:23:01;;;;;;;;;1.00;1.00;;;;;21.31;73.18;100873.84;5091931;28;49009;-81
2022/08/23 00:25:27;;;;;;;;;1.00;1.00;;;;;21.30;73.32;100864.00;5091057;28;45290;-81
2022/08/23 00:27:52;;;;;;;;;3.00;1.75;;;;;21.21;73.21;100842.69;5092247;28;47748;-81
2022/08/23 00:30:17;;;;;;;;;1.00;1.00;;;;;21.27;73.60;100847.97;5091500;28;58670;-82
2022/08/23 00:32:44;;;;;;;;;1.75;1.00;;;;;21.39;73.35;100863.97;5092043;28;45186;-82
2022/08/23 00:35:12;;;;;;;;;1.00;1.00;;;;;21.31;73.63;100847.97;5091958;28;45002;-81
2022/08/23 00:37:38;;;;;;;;;0.00;0.00;;;;;21.40;73.42;100864.88;5091436;28;44925;-81
2022/08/23 00:40:08;;;;;;;;;2.00;1.25;;;;;21.41;73.42;100872.88;5092026;28;45183;-82
2022/08/23 00:48:51;;;;;;;;;1.00;1.00;;;;;21.23;74.02;100831.09;5092184;28;45146;-83
2022/08/23 00:51:24;;;;;;;;;1.00;1.00;;;;;21.44;73.63;100864.84;5072867;28;46367;-82
2022/08/23 00:53:56;;;;;;;;;1.00;0.25;;;;;21.49;74.02;100864.78;5091523;28;45010;-82
2022/08/23 00:56:25;;;;;;;;;2.00;2.00;;;;;21.36;73.94;100843.47;5089995;28;44965;-82
2022/08/23 00:58:51;;;;;;;;;1.00;1.00;;;;;21.53;73.82;100871.91;5091772;28;45013;-81
2022/08/23 01:01:17;;;;;;;;;0.00;0.00;;;;;21.48;74.17;100855.00;5073143;28;47633;-81
2022/08/23 01:03:48;;;;;;;;;1.00;1.00;;;;;21.45;74.07;100858.56;5091747;28;45119;-82
2022/08/23 01:06:31;;;;;;;;;1.25;1.25;;;;;21.52;74.09;100862.97;5090343;28;45006;-81
2022/08/23 01:09:01;;;;;;;;;1.25;1.25;;;;;21.52;73.58;100870.09;5089820;28;44996;-81
2022/08/23 01:11:52;;;;;;;;;1.00;1.00;;;;;21.50;73.86;100850.50;5089797;28;47532;-82
2022/08/23 01:14:27;;;;;;;;;2.00;2.00;;;;;21.57;73.36;100854.91;5076490;28;45191;-82
2022/08/23 01:17:04;;;;;;;;;1.25;1.25;;;;;21.58;73.82;100860.25;5091531;28;45160;-82
2022/08/23 01:19:32;;;;;;;;;1.75;1.75;;;;;21.69;73.88;100868.19;5091355;28;45112;-82
2022/08/23 01:22:08;;;;;;;;;0.75;0.75;;;;;21.69;74.10;100876.22;5091474;28;51175;-81
2022/08/23 01:24:36;;;;;;;;;1.00;1.00;;;;;21.67;73.43;100872.63;5091442;28;45432;-81
2022/08/23 01:27:02;;;;;;;;;0.75;0.75;;;;;21.69;73.62;100878.88;5089845;28;45381;-83
2022/08/23 01:29:27;;;;;;;;;2.00;2.00;;;;;21.64;73.84;100870.00;5091402;28;44859;-81
2022/08/23 01:31:54;;;;;;;;;0.75;0.75;;;;;21.60;73.58;100871.81;5091010;28;45468;-82
2022/08/23 01:34:24;;;;;;;;;1.00;1.00;;;;;21.42;73.83;100845.22;5091431;28;45092;-81
2022/08/23 01:36:50;;;;;;;;;1.00;1.00;;;;;21.51;73.89;100874.56;5091506;28;45222;-82
2022/08/23 01:39:15;;;;;;;;;1.00;1.00;;;;;21.52;74.04;100880.78;5091652;28;45132;-82
2022/08/23 01:41:40;;;;;;;;;1.00;1.00;;;;;21.49;74.36;100876.38;5089754;28;45672;-81
2022/08/23 01:44:07;;;;;;;;;0.50;0.50;;;;;21.43;74.53;100867.50;5090843;28;54695;-81
2022/08/23 01:46:33;;;;;;;;;1.00;1.00;;;;;21.42;74.33;100866.59;5091467;28;45131;-81
2022/08/23 01:48:58;;;;;;;;;0.25;0.25;;;;;21.34;74.58;100850.66;5091144;28;45073;-80
2022/08/23 01:51:24;;;;;;;;;1.75;0.50;;;;;21.44;74.60;100871.97;5091246;28;45167;-81
2022/08/23 01:53:50;;;;;;;;;1.00;1.00;;;;;21.47;74.55;100875.47;5089587;28;45276;-81
2022/08/23 01:56:21;;;;;;;;;1.00;1.00;;;;;21.47;74.47;100875.47;5091006;28;45135;-82
2022/08/23 01:58:47;;;;;;;;;1.00;1.00;;;;;21.32;74.64;100849.75;5073559;28;45285;-81
2022/08/23 02:01:13;;;;;;;;;1.75;1.75;;;;;21.44;74.37;100877.31;5094074;28;44978;-81
2022/08/23 02:03:39;;;;;;;;;1.50;1.00;;;;;21.45;74.54;100877.28;5093831;28;45813;-82
2022/08/23 02:06:05;;;;;;;;;1.50;1.50;;;;;21.41;74.39;100872.88;5094202;28;44952;-81
2022/08/23 02:11:17;;;;;;;;;2.00;2.00;;;;;21.36;74.97;100880.03;5091941;28;45204;-82
2022/08/23 02:13:43;;;;;;;;;1.75;1.00;;;;;21.30;74.65;100874.72;5094194;28;45506;-82
2022/08/23 02:16:09;;;;;;;;;1.00;1.00;;;;;21.31;74.91;100884.53;5094569;28;45086;-81
2022/08/23 02:18:34;;;;;;;;;1.00;1.00;;;;;21.29;74.94;100878.28;5094691;28;45061;-81
2022/08/23 02:21:00;;;;;;;;;1.00;1.00;;;;;21.25;74.76;100877.41;5094196;28;45097;-81
2022/08/23 02:23:26;;;;;;;;;2.00;1.00;;;;;21.17;74.64;100871.22;5093696;28;45179;-82
2022/08/23 02:25:52;;;;;;;;;1.00;1.00;;;;;21.24;75.08;100874.75;5093668;28;44975;-82
2022/08/23 02:28:19;;;;;;;;;1.00;1.00;;;;;21.26;75.00;100875.63;5093966;28;44977;-82
2022/08/23 02:30:46;;;;;;;;;0.00;0.00;;;;;21.26;74.76;100889.00;5093819;28;45166;-81
2022/08/23 02:33:12;;;;;;;;;0.00;0.00;;;;;21.24;74.89;100882.78;5094075;28;44973;-82
2022/08/23 02:35:38;;;;;;;;;0.00;0.00;;;;;21.27;74.72;100875.59;5094190;28;44938;-81
2022/08/23 02:38:06;;;;;;;;;1.00;0.75;;;;;21.31;74.79;100879.19;5093657;28;44852;-81
2022/08/23 02:40:32;;;;;;;;;1.00;1.00;;;;;21.32;75.25;100880.94;5092264;28;45782;-81
2022/08/23 02:42:58;;;;;;;;;1.00;1.00;;;;;21.22;75.38;100856.03;5094021;28;45530;-81
2022/08/23 02:45:25;;;;;;;;;1.00;0.50;;;;;21.27;75.46;100874.72;5094295;28;45018;-82
2022/08/23 02:47:51;;;;;;;;;2.75;0.50;;;;;21.24;75.04;100858.72;5094044;28;45133;-81
2022/08/23 02:50:16;;;;;;;;;1.50;1.50;;;;;21.27;75.27;100856.88;5093776;28;45203;-81
2022/08/23 02:52:42;;;;;;;;;1.00;1.00;;;;;21.40;74.85;100880.91;5093585;28;44969;-82
2022/08/23 02:55:07;;;;;;;;;0.25;0.25;;;;;21.40;75.10;100875.56;5093158;28;49472;-82
2022/08/23 02:57:33;;;;;;;;;1.50;1.50;;;;;21.35;74.97;100868.47;5074483;28;45013;-82
2022/08/23 02:59:58;;;;;;;;;1.00;1.00;;;;;21.35;74.99;100878.28;5093782;28;44997;-82
2022/08/23 03:02:23;;;;;;;;;1.25;1.00;;;;;21.33;75.50;100874.72;5093556;28;44989;-81
2022/08/23 03:04:48;;;;;;;;;2.00;1.00;;;;;21.30;75.25;100875.63;5093296;28;45070;-81
2022/08/23 03:07:14;;;;;;;;;0.75;0.75;;;;;21.28;75.31;100887.19;5093529;28;45102;-82
2022/08/23 03:09:39;;;;;;;;;0.25;0.25;;;;;21.26;75.50;100889.00;5093242;28;45031;-82
2022/08/23 03:12:05;;;;;;;;;1.50;1.25;;;;;21.24;75.50;100896.16;5092943;28;45632;-82
2022/08/23 03:14:31;;;;;;;;;1.00;1.00;;;;;21.19;75.60;100893.50;5093203;28;44989;-81
2022/08/23 03:16:56;;;;;;;;;1.00;1.00;;;;;21.18;75.28;100897.09;5093236;28;44986;-83
2022/08/23 03:19:23;;;;;;;;;0.75;0.75;;;;;21.05;76.01;100882.00;5092887;28;50722;-83
2022/08/23 03:21:48;;;;;;;;;1.25;1.25;;;;;21.09;75.53;100895.34;5093015;28;44972;-82
2022/08/23 03:24:13;;;;;;;;;1.00;1.00;;;;;21.04;75.70;100891.81;5093183;28;44902;-81
2022/08/23 03:26:43;;;;;;;;;1.50;1.00;;;;;21.09;75.83;100895.34;5092087;28;45079;-81
2022/08/23 03:29:08;;;;;;;;;1.00;1.00;;;;;21.04;76.06;100882.91;5093063;28;45553;-81
2022/08/23 03:31:34;;;;;;;;;1.00;1.00;;;;;21.10;76.06;100909.59;5092877;28;45007;-82
2022/08/23 03:34:00;;;;;;;;;1.00;1.00;;;;;20.95;76.03;100881.19;5093389;28;44875;-81
2022/08/23 03:36:25;;;;;;;;;1.00;1.00;;;;;21.01;75.98;100894.50;5093361;28;45056;-81
2022/08/23 03:38:51;;;;;;;;;2.00;1.00;;;;;20.85;76.02;100872.31;5092408;28;45116;-81
2022/08/23 03:41:17;;;;;;;;;2.00;2.00;;;;;20.92;75.77;100889.19;5092723;28;45060;-81
2022/08/23 03:43:42;;;;;;;;;2.00;2.00;;;;;20.96;76.36;100900.75;5093374;28;44956;-81
2022/08/23 03:46:21;;;;;;;;;1.00;1.00;;;;;20.91;76.35;100898.13;5092440;28;45013;-82
2022/08/23 03:48:48;;;;;;;;;1.00;1.00;;;;;20.82;76.27;100884.81;5093078;28;45801;-82
2022/08/23 03:51:13;;;;;;;;;1.75;1.75;;;;;20.87;76.43;100902.56;5092989;28;45489;-81
2022/08/23 03:53:38;;;;;;;;;1.50;1.50;;;;;20.85;76.21;100908.84;5092384;28;45026;-82
2022/08/23 03:56:04;;;;;;;;;1.00;1.00;;;;;20.75;76.55;100904.44;5091335;28;44911;-82
2022/08/23 03:58:30;;;;;;;;;2.00;2.00;;;;;20.80;76.87;100910.66;5074377;28;46668;-81
2022/08/23 04:00:56;;;;;;;;;3.00;1.00;;;;;20.81;76.55;100917.75;5092357;28;49999;-82
2022/08/23 04:03:21;;;;;;;;;1.00;1.00;;;;;20.81;76.79;100915.97;5092806;28;44960;-81
2022/08/23 04:05:47;;;;;;;;;3.00;2.00;;;;;20.76;77.23;100915.09;5092550;28;45138;-82
2022/08/23 04:08:12;;;;;;;;;1.50;1.50;;;;;20.84;77.11;100924.00;5092437;28;45936;-82
2022/08/23 04:10:38;;;;;;;;;2.50;1.75;;;;;20.85;77.18;100916.84;5090516;28;45113;-81
2022/08/23 04:13:05;;;;;;;;;2.50;1.25;;;;;20.89;77.53;100921.28;5092665;28;45209;-81
2022/08/23 04:15:30;;;;;;;;;1.75;1.75;;;;;20.98;77.38;100941.72;5092584;28;45159;-82
2022/08/23 04:17:58;;;;;;;;;1.00;1.00;;;;;21.00;77.62;100929.25;5092084;28;45516;-81
2022/08/23 04:20:24;;;;;;;;;1.00;1.00;;;;;21.00;77.49;100919.44;5092526;28;45444;-82
2022/08/23 04:22:51;;;;;;;;;1.00;1.00;;;;;21.09;77.47;100938.09;5091048;27;44954;-82
2022/08/23 04:25:17;;;;;;;;;1.00;1.00;;;;;21.07;77.25;100917.63;5090380;28;45182;-82
2022/08/23 04:27:42;;;;;;;;;1.50;1.50;;;;;21.16;77.24;100940.75;5091965;28;45851;-81
2022/08/23 04:30:08;;;;;;;;;2.00;2.00;;;;;21.06;77.52;100918.53;5091641;28;54587;-81
2022/08/23 04:32:33;;;;;;;;;1.00;1.00;;;;;21.18;77.20;100939.84;5092372;28;44977;-82
2022/08/23 04:34:58;;;;;;;;;1.00;1.00;;;;;21.19;76.81;100946.97;5091989;28;45104;-81
2022/08/23 04:37:24;;;;;;;;;1.25;1.00;;;;;21.17;77.17;100948.75;5091520;28;45788;-82
2022/08/23 04:42:33;;;;;;;;;1.00;1.00;;;;;21.03;77.45;100923.88;5092173;28;45551;-81
2022/08/23 04:45:00;;;;;;;;;1.50;1.50;;;;;20.98;77.53;100910.53;5092113;28;44918;-81
2022/08/23 04:47:25;;;;;;;;;2.00;2.00;;;;;21.18;77.43;100952.28;5091777;28;45913;-81
2022/08/23 04:49:50;;;;;;;;;1.00;1.00;;;;;21.10;76.91;100933.66;5092015;28;44945;-82
2022/08/23 04:52:16;;;;;;;;;2.00;1.00;;;;;21.21;77.19;100954.97;5091600;28;45218;-81
2022/08/23 04:54:41;;;;;;;;;2.00;2.00;;;;;21.27;76.85;100960.28;5091553;28;45096;-81
2022/08/23 04:57:07;;;;;;;;;1.75;1.75;;;;;21.20;77.20;100947.84;5089966;28;45671;-82
2022/08/23 04:59:32;;;;;;;;;1.00;1.00;;;;;21.16;77.17;100955.00;5091648;28;56770;-82
2022/08/23 05:01:57;;;;;;;;;1.50;1.50;;;;;21.06;77.24;100940.78;5091624;28;45139;-82
2022/08/23 05:04:22;;;;;;;;;2.00;2.00;;;;;21.15;77.49;100947.00;5091559;28;48900;-83
2022/08/23 05:06:48;;;;;;;;;3.25;2.50;;;;;21.28;77.47;100970.97;5090923;28;45488;-81
2022/08/23 05:09:13;;;;;;;;;1.00;1.00;;;;;21.22;77.25;100954.06;5073214;28;45058;-82
2022/08/23 05:11:39;;;;;;;;;1.00;1.00;;;;;21.29;77.21;100972.75;5090146;28;45099;-81
2022/08/23 05:14:04;;;;;;;;;1.00;1.00;;;;;21.17;77.55;100950.53;5090748;28;45173;-82
2022/08/23 05:16:29;;;;;;;;;1.00;1.00;;;;;21.24;77.51;100961.19;5072925;28;47555;-81
2022/08/23 05:18:55;;;;;;;;;2.00;2.00;;;;;21.32;77.24;100966.50;5091786;28;44984;-82
2022/08/23 05:21:23;;;;;;;;;2.00;2.00;;;;;21.37;77.00;100970.94;5091212;28;44993;-81
2022/08/23 05:23:49;;;;;;;;;0.75;0.75;;;;;21.36;77.06;100960.25;5091028;28;45179;-82
2022/08/23 05:26:15;;;;;;;;;2.75;2.50;;;;;21.41;77.45;100978.94;5089265;28;45573;-82
2022/08/23 05:28:44;;;;;;;;;2.50;2.50;;;;;21.37;77.65;100967.38;5091555;28;45052;-81
2022/08/23 05:31:29;;;;;;;;;2.50;2.00;;;;;21.29;77.67;100955.81;5091392;28;45064;-81
2022/08/23 05:33:54;;;;;;;;;3.00;3.00;;;;;21.33;77.70;100966.53;5092221;27;45275;-81
2022/08/23 05:36:20;;;;;;;;;2.25;2.25;;;;;21.34;77.33;100972.75;5094533;28;57106;-81
2022/08/23 05:38:48;;;;;;;;;2.00;2.00;;;;;21.30;77.46;100977.22;5094789;28;44929;-82
2022/08/23 05:41:15;;;;;;;;;2.75;2.75;;;;;21.33;77.74;100973.66;5092809;28;45114;-82
2022/08/23 05:43:40;;;;;;;;;3.25;2.75;;;;;21.03;77.73;100939.91;5095604;28;45124;-82
2022/08/23 05:46:12;;;;;;;;;2.00;2.00;;;;;21.26;77.70;100980.78;5094053;28;46096;-80
2022/08/23 05:48:38;;;;;;;;;4.00;3.50;;;;;21.23;78.07;100975.47;5093940;28;45533;-81
2022/08/23 05:51:18;;;;;;;;;2.25;2.25;;;;;21.16;78.22;100972.81;5076204;28;45040;-82
2022/08/23 05:53:44;;;;;;;;;4.00;4.00;;;;;21.18;78.11;100971.94;5094629;28;45137;-81
2022/08/23 05:56:25;;;;;;;;;4.75;4.50;;;;;21.12;78.40;100958.56;5092232;28;45129;-81
2022/08/23 05:58:54;;;;;;;;;3.00;3.00;;;;;21.21;78.59;100973.69;5094813;28;45521;-81
2022/08/23 06:01:20;;;;;;;;;3.75;3.00;;;;;21.12;78.42;100967.47;5094677;28;45025;-82
2022/08/23 06:03:45;;;;;;;;;3.00;3.00;;;;;21.11;78.87;100951.44;5094636;28;45050;-81
2022/08/23 06:06:13;;;;;;;;;3.00;3.00;;;;;21.26;78.47;100970.09;5094096;28;45358;-82
2022/08/23 06:08:39;;;;;;;;;3.00;3.00;;;;;21.36;78.57;100970.94;5094146;28;45033;-81
2022/08/23 06:11:14;;;;;;;;;4.00;3.00;;;;;21.35;77.17;100970.06;5092486;28;45290;-81
2022/08/23 06:13:49;;;;;;;;;3.50;3.50;;;;;21.46;77.87;100983.38;5094113;28;45215;-80
2022/08/23 06:16:18;;;;;;;;;3.75;3.00;;;;;21.51;77.62;100981.53;5094056;28;46140;-81
2022/08/23 06:18:44;;;;;;;;;3.00;3.00;;;;;21.56;77.68;100987.75;5094129;28;45435;-82
2022/08/23 06:21:12;;;;;;;;;3.50;2.75;;;;;21.56;78.15;100985.06;5094589;28;45053;-85
2022/08/23 06:23:38;;;;;;;;;3.25;3.25;;;;;21.62;77.88;100986.81;5093948;28;44995;-84
2022/08/23 06:26:10;;;;;;;;;3.00;2.00;;;;;21.66;77.99;100995.72;5092346;28;45955;-85
2022/08/23 06:28:36;;;;;;;;;4.00;3.00;;;;;21.66;77.50;100991.25;5094421;28;45417;-84
2022/08/23 06:31:02;;;;;;;;;3.00;2.75;;;;;21.61;77.78;100980.59;5093829;28;45090;-84
2022/08/23 06:33:27;;;;;;;;;4.75;4.00;;;;;21.73;77.44;100992.13;5094255;28;44892;-84
2022/08/23 06:36:07;;;;;;;;;3.00;2.00;;;;;21.78;77.04;100995.66;5094139;28;45238;-84
2022/08/23 06:38:34;;;;;;;;;2.25;2.25;;;;;21.79;76.50;100992.94;5092365;28;45405;-84
2022/08/23 06:41:05;;;;;;;;;2.75;2.75;;;;;21.82;77.07;100975.97;5091800;28;45469;-84
2022/08/23 06:43:31;;;;;;;;;2.25;2.00;;;;;21.93;76.95;101000.88;5093819;28;45117;-83
2022/08/23 06:46:11;;;;;;;;;5.25;5.00;;;;;21.89;76.70;100978.59;5092800;27;45283;-84
2022/08/23 06:48:37;;;;;;;;;4.00;3.75;;;;;22.03;77.30;100991.00;5093994;28;45551;-82
2022/08/23 06:51:09;;;;;;;;;4.75;3.50;;;;;22.10;77.51;100998.03;5093790;28;44988;-81
2022/08/23 06:53:35;;;;;;;;;7.50;6.25;;;;;22.05;76.75;100984.69;5093444;28;45020;-82
2022/08/23 06:56:00;;;;;;;;;6.25;4.00;;;;;22.15;76.78;100991.78;5090180;28;54654;-82
2022/08/23 06:58:25;;;;;;;;;6.00;4.75;;;;;22.28;76.62;101005.06;5094048;28;44973;-81
2022/08/23 07:00:51;;;;;;;;;4.00;4.00;;;;;22.29;75.59;100998.81;5073374;28;45321;-82
2022/08/23 07:03:16;;;;;;;;;5.25;4.50;;;;;22.09;75.73;100967.72;5093705;28;45148;-82
2022/08/23 07:05:41;;;;;;;;;8.50;7.00;;;;;22.15;75.38;100977.50;5093321;28;45616;-82
2022/08/23 07:08:07;;;;;;;;;5.00;5.00;;;;;22.34;74.91;101013.03;5092707;28;45009;-81
2022/08/23 07:10:33;;;;;;;;;8.00;7.50;;;;;22.40;75.87;101018.34;5091680;28;45108;-82
2022/08/23 07:12:58;;;;;;;;;5.25;5.00;;;;;22.23;75.33;100981.00;5094046;28;44945;-82
2022/08/23 07:15:23;;;;;;;;;3.50;3.00;;;;;22.56;75.29;101022.66;5093149;28;45331;-82
2022/08/23 07:17:48;;;;;;;;;4.75;4.75;;;;;22.53;75.16;101005.72;5093630;28;45000;-82
2022/08/23 07:20:14;;;;;;;;;5.25;4.75;;;;;22.74;75.41;101026.03;5092549;28;51189;-82
2022/08/23 07:22:39;;;;;;;;;4.50;4.50;;;;;22.85;75.38;101029.47;5093905;28;45143;-82
2022/08/23 07:25:05;;;;;;;;;5.00;4.00;;;;;22.95;74.68;101025.81;5092988;28;45488;-82
2022/08/23 07:27:30;;;;;;;;;4.75;4.25;;;;;22.98;73.92;101020.41;5091533;28;44993;-82
2022/08/23 07:29:56;;;;;;;;;4.25;3.50;;;;;23.08;74.92;101019.41;5093326;28;44945;-82
2022/08/23 07:32:21;;;;;;;;;5.50;3.75;;;;;23.22;73.58;101026.38;5092023;28;45397;-82
2022/08/23 07:34:47;;;;;;;;;4.00;3.75;;;;;23.33;74.24;101038.75;5092867;28;46824;-82
2022/08/23 07:37:12;;;;;;;;;3.75;2.50;;;;;23.36;73.69;101025.31;5092401;28;47323;-82
2022/08/23 07:39:38;;;;;;;;;5.00;4.50;;;;;23.48;73.79;101037.66;5092916;28;44979;-82
2022/08/23 07:42:04;;;;;;;;;4.00;3.50;;;;;23.55;73.28;101036.66;5091439;28;45152;-82
2022/08/23 07:44:29;;;;;;;;;4.50;4.50;;;;;23.36;72.53;100998.47;5093013;28;45723;-81
2022/08/23 07:46:55;;;;;;;;;4.75;3.25;;;;;23.68;72.48;101026.66;5093192;28;44942;-82
2022/08/23 07:49:21;;;;;;;;;5.00;4.50;;;;;23.74;71.79;101029.25;5093086;28;45042;-82
2022/08/23 07:51:49;;;;;;;;;7.00;6.50;;;;;23.79;71.98;101038.16;5092189;28;45063;-82
2022/08/23 07:54:15;;;;;;;;;5.50;5.25;;;;;23.86;71.95;101033.56;5092797;28;45936;-82
2022/08/23 07:56:41;;;;;;;;;5.25;5.00;;;;;23.89;71.89;101038.84;5090282;27;45430;-81
2022/08/23 07:59:07;;;;;;;;;6.25;5.00;;;;;23.97;70.98;101046.81;5092819;28;44985;-82
2022/08/23 08:01:33;;;;;;;;;5.00;4.50;;;;;24.03;71.28;101047.59;5092346;28;45261;-81
2022/08/23 08:04:01;;;;;;;;;4.00;4.00;;;;;24.04;71.48;101035.97;5092535;28;45175;-85
2022/08/23 08:06:28;;;;;;;;;4.25;4.00;;;;;24.09;71.98;101027.84;5092290;28;45665;-84
2022/08/23 08:08:54;;;;;;;;;4.00;3.00;;;;;24.14;71.99;101031.31;5092549;28;44994;-85
2022/08/23 08:11:21;;;;;;;;;3.00;3.00;;;;;24.16;71.00;101029.47;5090946;28;45416;-80
2022/08/23 08:13:49;;;;;;;;;2.25;2.25;;;;;24.27;70.75;101046.31;5092047;28;45353;-81
2022/08/23 08:16:28;;;;;;;;;3.75;3.75;;;;;24.20;70.38;101032.09;5091420;28;44934;-82
2022/08/23 08:18:55;;;;;;;;;4.00;4.00;;;;;24.32;71.05;101048.91;5092738;28;44991;-82
2022/08/23 08:21:20;;;;;;;;;2.25;2.00;;;;;24.32;70.88;101049.78;5092290;28;44991;-82
2022/08/23 08:23:46;;;;;;;;;4.00;3.75;;;;;24.34;70.77;101042.59;5091648;28;54088;-82
2022/08/23 08:26:12;;;;;;;;;3.75;3.50;;;;;24.37;70.68;101036.31;5091634;28;45139;-82
2022/08/23 08:28:38;;;;;;;;;4.00;4.00;;;;;24.49;70.38;101054.91;5092344;28;45000;-82
2022/08/23 08:31:04;;;;;;;;;3.00;3.00;;;;;24.53;70.34;101056.66;5092161;28;45195;-82
2022/08/23 08:33:31;;;;;;;;;3.75;2.50;;;;;24.60;69.63;101054.72;5090506;28;47816;-82
2022/08/23 08:35:57;;;;;;;;;3.00;3.00;;;;;24.63;69.84;101049.28;5092163;28;45094;-81
2022/08/23 08:38:23;;;;;;;;;4.00;4.00;;;;;24.72;69.06;101054.47;5091780;28;44871;-82
2022/08/23 08:40:59;;;;;;;;;3.50;3.00;;;;;24.77;69.25;101054.41;5090898;28;45207;-82
2022/08/23 08:43:40;;;;;;;;;3.00;3.00;;;;;24.76;68.45;101037.38;5092247;28;46144;-81
2022/08/23 08:46:31;;;;;;;;;4.00;4.00;;;;;24.83;67.54;101065.06;5091790;28;45145;-82
2022/08/23 08:49:00;;;;;;;;;2.25;2.25;;;;;24.84;68.61;101067.72;5059301;28;45061;-81
2022/08/23 08:52:14;;;;;;;;;3.50;3.25;;;;;24.85;69.25;101060.53;5091573;28;45166;-81
2022/08/23 08:54:43;;;;;;;;;4.25;3.00;;;;;24.82;69.52;101044.44;5076929;28;45266;-81
2022/08/23 08:57:13;;;;;;;;;4.00;4.00;;;;;24.94;69.07;101061.22;5091447;28;45159;-82
2022/08/23 09:00:05;;;;;;;;;3.75;3.75;;;;;25.01;68.66;101061.09;5091699;28;45052;-80
2022/08/23 09:02:33;;;;;;;;;3.00;3.00;;;;;25.04;68.02;101074.50;5092414;28;45391;-81
2022/08/23 09:05:07;;;;;;;;;4.00;4.00;;;;;24.98;68.13;101070.13;5091640;28;46241;-82
2022/08/23 09:07:46;;;;;;;;;5.00;5.00;;;;;24.94;67.73;101044.22;5091657;28;44983;-82
2022/08/23 09:10:32;;;;;;;;;3.00;3.00;;;;;25.19;66.98;101082.28;5090829;28;44914;-82
2022/08/23 09:13:28;;;;;;;;;2.50;2.50;;;;;25.26;67.62;101069.59;5073344;28;45096;-81
2022/08/23 09:16:09;;;;;;;;;4.00;4.00;;;;;25.38;67.42;101075.63;5091449;28;45767;-82
2022/08/23 09:18:35;;;;;;;;;3.00;3.00;;;;;25.43;67.37;101068.31;5091736;28;44930;-82
2022/08/23 09:21:04;;;;;;;;;4.00;4.00;;;;;25.54;66.60;101072.59;5091497;28;45111;-82
2022/08/23 09:23:39;;;;;;;;;4.00;3.00;;;;;25.46;66.84;101062.84;5091604;28;45052;-82
2022/08/23 09:26:25;;;;;;;;;3.50;3.50;;;;;25.54;66.06;101075.28;5090871;28;46080;-81
2022/08/23 09:28:54;;;;;;;;;5.25;4.00;;;;;25.54;66.30;101083.34;5092282;28;45278;-82
2022/08/23 09:31:40;;;;;;;;;4.00;3.25;;;;;25.55;66.64;101072.53;5091487;28;45103;-82
2022/08/23 09:34:05;;;;;;;;;2.50;2.50;;;;;25.68;66.30;101073.19;5091437;28;45007;-82
2022/08/23 09:36:33;;;;;;;;;2.50;2.50;;;;;25.79;67.75;101072.97;5091634;28;45556;-82
2022/08/23 09:39:08;;;;;;;;;4.75;4.00;;;;;25.90;66.52;101073.59;5090986;28;45334;-81
2022/08/23 09:41:40;;;;;;;;;3.00;3.00;;;;;26.03;66.14;101069.69;5091282;28;44969;-81
2022/08/23 09:44:08;;;;;;;;;4.00;3.25;;;;;26.14;64.90;101078.38;5072830;28;45044;-82
2022/08/23 09:46:37;;;;;;;;;4.25;4.25;;;;;26.19;64.90;101078.28;5091385;28;45284;-82
2022/08/23 09:49:26;;;;;;;;;3.50;3.25;;;;;26.26;64.49;101073.63;5091192;28;44962;-82
2022/08/23 09:51:52;;;;;;;;;3.00;3.00;;;;;26.27;64.17;101065.50;5090986;28;44938;-82
2022/08/23 09:54:19;;;;;;;;;2.25;2.25;;;;;26.40;64.30;101071.44;5090529;28;44898;-82
2022/08/23 09:57:00;;;;;;;;;3.75;3.00;;;;;26.49;63.99;101072.13;5090334;28;45975;-81
2022/08/23 09:59:25;;;;;;;;;3.00;3.00;;;;;26.59;63.61;101077.28;5091460;28;45139;-82
2022/08/23 10:01:54;;;;;;;;;4.00;4.00;;;;;26.64;63.45;101068.16;5091170;28;45097;-82
2022/08/23 10:04:45;;;;;;;;;3.00;3.00;;;;;26.74;63.44;101075.06;5090899;28;44929;-82
2022/08/23 10:07:40;;;;;;;;;4.00;4.00;;;;;26.85;63.15;101063.13;5090792;28;45130;-82
2022/08/23 10:10:34;;;;;;;;;3.25;3.25;;;;;26.93;62.63;101066.47;5090758;28;45372;-82
2022/08/23 10:13:02;;;;;;;;;4.00;3.00;;;;;26.98;63.00;101061.84;5075445;28;45132;-82
2022/08/23 10:16:02;;;;;;;;;4.25;4.25;;;;;26.97;62.68;101054.69;5090727;28;44979;-82
2022/08/23 10:19:06;;;;;;;;;3.00;3.00;;;;;26.90;62.53;101053.09;5076336;28;45636;-82
2022/08/23 10:21:56;;;;;;;;;4.00;4.00;;;;;26.81;62.96;101047.94;5090320;28;45411;-82
2022/08/23 10:24:43;;;;;;;;;2.25;2.00;;;;;26.79;63.07;101047.09;5094193;28;45315;-83
2022/08/23 10:30:11;;;;;;;;;3.25;3.25;;;;;26.72;62.49;101033.78;5093572;28;44984;-82
2022/08/23 10:32:46;;;;;;;;;2.25;2.25;;;;;26.85;62.18;101049.63;5094093;28;44966;-82
2022/08/23 10:35:30;;;;;;;;;3.50;3.50;;;;;26.91;62.11;101038.66;5094508;28;45227;-82
2022/08/23 10:38:22;;;;;;;;;3.00;2.75;;;;;26.96;61.79;101034.91;5094047;28;45121;-82
2022/08/23 10:41:07;;;;;;;;;2.25;2.25;;;;;27.05;61.72;101035.59;5075478;28;47556;-82
2022/08/23 10:43:51;;;;;;;;;3.00;3.00;;;;;27.18;61.52;101032.50;5094162;28;45125;-83
2022/08/23 10:46:20;;;;;;;;;2.50;2.50;;;;;27.21;61.77;101027.00;5094211;28;44976;-82
2022/08/23 10:48:57;;;;;;;;;2.00;2.00;;;;;27.14;61.17;101017.34;5093602;28;45270;-82
2022/08/23 10:51:27;;;;;;;;;3.00;3.00;;;;;27.17;60.85;101029.84;5093409;28;45812;-82
2022/08/23 10:54:22;;;;;;;;;3.00;3.00;;;;;27.14;61.76;101030.84;5093617;28;44964;-82
2022/08/23 10:56:50;;;;;;;;;3.00;3.00;;;;;27.16;62.02;101018.19;5093685;28;45023;-82
2022/08/23 10:59:24;;;;;;;;;2.00;2.00;;;;;27.24;60.79;101023.31;5094061;28;44994;-81
2022/08/23 11:01:59;;;;;;;;;3.50;3.00;;;;;27.19;60.50;101018.09;5093622;28;45712;-81
2022/08/23 11:04:35;;;;;;;;;1.00;1.00;;;;;27.29;60.69;101034.91;5093408;28;45642;-82
2022/08/23 11:07:14;;;;;;;;;2.00;2.00;;;;;27.19;60.21;101026.19;5093672;28;45025;-81
2022/08/23 11:09:51;;;;;;;;;2.00;2.00;;;;;27.04;60.31;101010.38;5092619;28;45026;-80
2022/08/23 11:12:26;;;;;;;;;2.00;2.00;;;;;27.06;60.17;101018.47;5093020;28;45125;-81
2022/08/23 11:14:55;;;;;;;;;1.25;1.25;;;;;27.11;60.39;101021.94;5093568;28;45486;-83
2022/08/23 11:17:28;;;;;;;;;2.00;2.00;;;;;27.11;60.17;101019.25;5094092;28;45145;-83
2022/08/23 11:20:07;;;;;;;;;1.00;1.00;;;;;27.12;59.94;101026.41;5092987;28;45292;-82
2022/08/23 11:22:55;;;;;;;;;3.00;2.00;;;;;26.90;59.83;100999.16;5093345;28;45703;-81
2022/08/23 11:25:21;;;;;;;;;2.00;2.00;;;;;26.88;59.85;101022.56;5070810;28;45153;-81
2022/08/23 11:27:46;;;;;;;;;2.00;2.00;;;;;26.81;59.96;101018.28;5093344;28;44978;-81
2022/08/23 11:30:43;;;;;;;;;2.00;1.00;;;;;26.94;59.67;101020.56;5093319;28;45086;-81
2022/08/23 11:33:33;;;;;;;;;1.50;1.50;;;;;26.88;59.91;101017.16;5092546;28;45387;-81
2022/08/23 11:36:07;;;;;;;;;1.00;1.00;;;;;26.77;59.70;101020.16;5093366;28;44899;-81
2022/08/23 11:38:42;;;;;;;;;1.00;1.00;;;;;26.81;59.97;101023.69;5074318;28;45064;-82
2022/08/23 11:41:13;;;;;;;;;0.50;0.50;;;;;26.93;60.16;101021.50;5092786;28;45055;-81
2022/08/23 11:43:41;;;;;;;;;1.00;1.00;;;;;27.29;59.49;101017.78;5092933;28;45704;-81
2022/08/23 11:46:54;;;;;;;;;0.25;0.25;;;;;27.30;58.81;101028.56;5092655;28;45294;-81
2022/08/23 11:49:36;;;;;;;;;1.50;1.50;;;;;27.44;59.49;101020.06;5078365;28;45012;-81
2022/08/23 11:52:13;;;;;;;;;1.50;1.00;;;;;27.77;59.20;101023.50;5074649;28;45206;-81